DNJO

Yakubu Gowon Airport

Jos, Nigeria
METAR DNJO 161400Z 05010KT 9999 NSC 29/M01 Q1020
Observed Flight Rules
Dec-16 @ 14:00 UTC (12 hours ago) Visual Flight Rules
Wind Visibility Clouds
50° at 10 knots 10,000+ meters
  • Clear skies
Temperatures Readings
Current 29°C / 84°F
Dewpoint -1°C / 30°F
Humidity 14%
Altimeter 30.12" Hg
Pressure 1020 hPa
Elevation 1285
METAR DNJO 161400Z 05010KT 9999 NSC 29/M01 Q1020
Observed Flight Rules
Dec-16 @ 14:00 UTC
(12 hours ago)
VFR
Wind Visibility
50° at 10 knots 10,000+ meters
Clouds
  • Clear skies
Temperature Dewpoint
29°C / 84°F -1°C / 30°F
Humidity Altimeter Pressure
14% 30.12" Hg 1020 hPa